Time;durP1;ratioP1;P1;durP2;ratioP2;P2;SDS_P1;SDS_P2;PMS_P1;PMS_P2;Temp;Humidity;BMP_temperature;BMP_pressure;BME280_temperature;BME280_humidity;BME280_pressure;Samples;Min_cycle;Max_cycle;Signal;HPM_P1;HPM_P2
2022/10/12 00:02:19;;;;;;;1.20;0.80;;;;;;;8.41;52.92;97324.25;6321251;28;20036;-68
2022/10/12 00:05:20;;;;;;;2.80;1.02;;;;;;;8.38;53.15;97332.25;6321132;28;20050;-69
2022/10/12 00:08:26;;;;;;;1.77;1.05;;;;;;;8.35;53.25;97326.28;6321090;28;20081;-69
2022/10/12 00:11:31;;;;;;;1.75;1.17;;;;;;;8.34;53.33;97333.31;6320705;28;20069;-68
2022/10/12 00:14:36;;;;;;;2.10;0.90;;;;;;;8.29;53.40;97322.19;6320485;28;20667;-68
2022/10/12 00:17:40;;;;;;;1.02;0.90;;;;;;;8.19;53.48;97326.19;6319689;28;20086;-68
2022/10/12 00:20:42;;;;;;;1.80;1.30;;;;;;;8.14;53.40;97317.69;6319443;28;20039;-70
2022/10/12 00:23:48;;;;;;;;;;;;;;;8.10;53.31;97322.25;6321212;28;20471;-68
2022/10/12 00:26:52;;;;;;;1.55;0.80;;;;;;;8.06;53.35;97316.28;6320751;28;19920;-68
2022/10/12 00:29:54;;;;;;;2.67;1.63;;;;;;;8.06;53.28;97316.28;6320442;28;20528;-69
2022/10/12 00:32:57;;;;;;;1.50;0.90;;;;;;;8.05;53.74;97311.97;6320682;28;20040;-69
2022/10/12 00:35:59;;;;;;;1.48;1.05;;;;;;;8.05;54.01;97311.97;6320371;28;20185;-69
2022/10/12 00:39:10;;;;;;;3.20;1.25;;;;;;;8.04;53.75;97312.91;6320252;28;20036;-69
2022/10/12 00:42:17;;;;;;;3.25;0.90;;;;;;;7.94;54.06;97310.78;6320254;28;20056;-69
2022/10/12 00:45:25;;;;;;;1.95;1.00;;;;;;;7.88;53.82;97325.03;6320152;28;20558;-69
2022/10/12 00:48:29;;;;;;;2.28;0.90;;;;;;;7.77;54.03;97308.94;6320367;28;20501;-69
2022/10/12 00:51:36;;;;;;;11.82;7.10;;;;;;;7.69;54.40;97311.06;6320441;28;20490;-68
2022/10/12 00:54:45;;;;;;;4.85;1.77;;;;;;;7.61;54.62;97321.91;6320408;28;20044;-68
2022/10/12 00:57:50;;;;;;;6.03;1.60;;;;;;;7.48;55.02;97313.75;6319767;28;20436;-68
2022/10/12 01:00:52;;;;;;;3.25;1.17;;;;;;;7.41;55.09;97312.31;6320058;28;20135;-68
2022/10/12 01:03:53;;;;;;;2.15;1.23;;;;;;;7.33;55.08;97325.78;6319962;28;20050;-68
2022/10/12 01:07:00;;;;;;;3.10;1.25;;;;;;;7.24;55.04;97320.09;6320242;28;20040;-68
2022/10/12 01:10:03;;;;;;;3.65;1.20;;;;;;;7.22;55.06;97316.69;6320056;28;20393;-68
2022/10/12 01:13:07;;;;;;;1.77;1.00;;;;;;;7.16;55.19;97329.16;6320100;28;20042;-69
2022/10/12 01:16:26;;;;;;;2.75;1.23;;;;;;;7.15;55.03;97321.34;6319951;28;20064;-68
2022/10/12 01:19:51;;;;;;;4.72;1.23;;;;;;;7.14;55.24;97317.88;6320171;28;20040;-68
2022/10/12 01:23:11;;;;;;;3.10;1.20;;;;;;;7.09;55.26;97316.38;6318897;28;20044;-68
2022/10/12 01:26:40;;;;;;;4.45;1.30;;;;;;;7.10;55.87;97321.53;6324907;28;20080;-68
2022/10/12 01:30:10;;;;;;;5.43;2.20;;;;;;;7.06;56.48;97306.91;6324701;28;20182;-68
2022/10/12 01:33:47;;;;;;;3.30;1.40;;;;;;;7.04;56.84;97318.34;6324846;28;20051;-69
2022/10/12 01:36:59;;;;;;;3.30;1.88;;;;;;;6.97;57.85;97312.53;6324539;28;20540;-69
2022/10/12 01:40:19;;;;;;;4.30;1.85;;;;;;;6.93;57.56;97314.41;6324505;28;20040;-68
2022/10/12 01:43:22;;;;;;;8.10;3.40;;;;;;;6.90;57.50;97318.94;6324423;28;20032;-68
2022/10/12 01:46:23;;;;;;;7.50;4.28;;;;;;;6.87;57.60;97316.47;6324411;28;20136;-69
2022/10/12 01:49:29;;;;;;;7.97;4.13;;;;;;;6.82;57.60;97313.19;6324040;28;20040;-69
2022/10/12 01:52:56;;;;;;;9.68;3.92;;;;;;;6.77;58.27;97304.72;6324324;28;20051;-68
2022/10/12 01:55:57;;;;;;;6.45;3.40;;;;;;;6.74;58.31;97301.31;6324131;28;20058;-69
2022/10/12 01:59:11;;;;;;;7.10;3.58;;;;;;;6.74;59.17;97303.91;6323134;28;20067;-69
2022/10/12 02:02:29;;;;;;;6.63;3.78;;;;;;;6.72;59.81;97303.13;6324116;28;20505;-68
2022/10/12 02:06:09;;;;;;;10.00;3.85;;;;;;;6.73;60.30;97309.19;6324002;28;20040;-69
2022/10/12 02:09:32;;;;;;;9.93;4.60;;;;;;;6.64;60.09;97294.75;6323778;28;20044;-69
2022/10/12 02:12:34;;;;;;;9.95;5.32;;;;;;;6.53;60.08;97308.28;6323708;28;20047;-69
2022/10/12 02:15:39;;;;;;;10.57;4.82;;;;;;;6.44;60.58;97307.81;6323231;28;20056;-68
2022/10/12 02:18:47;;;;;;;12.43;4.78;;;;;;;6.35;60.69;97308.19;6323134;28;20051;-68
2022/10/12 02:21:54;;;;;;;14.50;5.47;;;;;;;6.26;61.27;97307.66;6323152;28;20036;-68
2022/10/12 02:25:05;;;;;;;10.93;5.00;;;;;;;6.20;61.65;97305.31;6322376;28;20130;-69
2022/10/12 02:28:15;;;;;;;14.18;5.18;;;;;;;6.13;62.12;97293.38;6321664;28;20574;-69
2022/10/12 02:31:42;;;;;;;14.02;5.28;;;;;;;6.18;62.10;97307.13;6322859;28;20489;-69
2022/10/12 02:35:28;;;;;;;20.13;5.20;;;;;;;6.16;62.54;97316.78;6322473;28;20040;-69
2022/10/12 02:38:47;;;;;;;13.57;5.10;;;;;;;6.15;62.31;97316.84;6308389;28;20052;-69
2022/10/12 02:41:52;;;;;;;9.07;4.10;;;;;;;6.18;61.84;97328.03;6322900;28;20087;-68
2022/10/12 02:44:55;;;;;;;9.25;4.78;;;;;;;6.26;61.94;97330.34;6322713;28;20101;-69
2022/10/12 02:48:01;;;;;;;10.35;4.45;;;;;;;6.39;61.87;97338.50;6322521;28;20414;-69
2022/10/12 02:51:10;;;;;;;11.35;4.47;;;;;;;6.54;61.04;97348.38;6322858;28;20401;-68
2022/10/12 02:54:11;;;;;;;8.63;2.42;;;;;;;6.73;59.33;97345.81;6322348;28;20044;-68
2022/10/12 02:57:13;;;;;;;10.18;3.72;;;;;;;6.86;58.55;97346.16;6322332;28;20038;-69
2022/10/12 03:00:15;;;;;;;3.65;2.00;;;;;;;6.98;57.78;97340.41;6322377;28;20146;-69
2022/10/12 03:03:18;;;;;;;8.68;3.13;;;;;;;7.12;57.58;97338.03;6322441;28;20044;-69
2022/10/12 03:06:23;;;;;;;7.47;2.88;;;;;;;7.22;57.64;97332.38;6322070;28;20392;-69
2022/10/12 03:09:27;;;;;;;6.40;2.95;;;;;;;7.40;57.10;97326.34;6321661;28;20036;-69
2022/10/12 03:12:29;;;;;;;11.45;4.25;;;;;;;7.56;57.12;97337.84;6321917;28;20036;-68
2022/10/12 03:15:30;;;;;;;8.77;3.95;;;;;;;7.74;56.37;97349.22;6322110;28;20047;-70
2022/10/12 03:18:34;;;;;;;10.77;4.38;;;;;;;7.83;56.17;97330.47;6322118;28;20039;-70
2022/10/12 03:21:40;;;;;;;11.10;3.70;;;;;;;8.02;55.48;97346.19;6321708;28;20048;-70
2022/10/12 03:24:41;;;;;;;14.00;4.38;;;;;;;8.18;55.36;97342.81;6321611;28;20040;-69
2022/10/12 03:27:44;;;;;;;12.43;5.13;;;;;;;8.32;55.36;97340.38;6320773;28;20048;-68
2022/10/12 03:30:45;;;;;;;12.68;4.75;;;;;;;8.43;55.10;97338.13;6321273;28;20158;-69
2022/10/12 03:33:51;;;;;;;17.33;4.88;;;;;;;8.53;55.20;97346.41;6321516;28;20040;-69
2022/10/12 03:36:55;;;;;;;13.45;5.18;;;;;;;8.67;54.86;97348.34;6319651;28;20044;-69
2022/10/12 03:39:57;;;;;;;11.70;5.57;;;;;;;8.80;54.64;97344.16;6321556;28;20043;-69
2022/10/12 03:42:58;;;;;;;14.95;5.00;;;;;;;8.93;54.65;97352.28;6321312;28;20060;-68
2022/10/12 03:46:00;;;;;;;14.10;4.97;;;;;;;9.06;54.19;97339.38;6320783;28;20527;-68
2022/10/12 03:49:03;;;;;;;18.58;5.53;;;;;;;9.18;53.79;97344.00;6320832;28;20527;-69
2022/10/12 03:52:05;;;;;;;14.63;4.78;;;;;;;9.31;53.47;97354.72;6321153;28;20036;-69
2022/10/12 03:55:07;;;;;;;13.85;5.07;;;;;;;9.43;53.21;97349.69;6321141;28;20082;-69
2022/10/12 03:58:11;;;;;;;11.10;3.92;;;;;;;9.54;52.74;97345.63;6319960;28;20441;-69
2022/10/12 04:01:12;;;;;;;9.02;3.28;;;;;;;9.63;52.28;97345.16;6321100;28;20039;-69
2022/10/12 04:04:14;;;;;;;5.72;2.38;;;;;;;9.78;51.18;97348.72;6320974;28;20509;-70
2022/10/12 04:07:18;;;;;;;;;;;;;;;9.98;50.99;97353.75;6320310;28;20047;-68
2022/10/12 04:10:21;;;;;;;8.02;3.63;;;;;;;10.11;49.97;97352.16;6320971;28;19916;-68
2022/10/12 04:13:24;;;;;;;7.50;2.63;;;;;;;10.30;49.50;97359.91;6320927;28;20038;-69
2022/10/12 04:16:25;;;;;;;4.97;3.00;;;;;;;10.47;49.07;97352.81;6320796;28;20107;-69
2022/10/12 04:19:31;;;;;;;7.10;3.55;;;;;;;10.68;49.00;97356.88;6319561;28;20382;-69
2022/10/12 04:22:34;;;;;;;8.18;2.90;;;;;;;10.86;48.89;97354.09;6320543;28;20036;-70
2022/10/12 04:25:36;;;;;;;6.63;3.22;;;;;;;10.97;48.59;97357.81;6320605;28;20418;-70
2022/10/12 04:28:40;;;;;;;9.40;3.22;;;;;;;11.21;48.34;97355.50;6320505;28;20036;-69
2022/10/12 04:31:44;;;;;;;9.32;3.20;;;;;;;11.51;47.52;97357.22;6319206;28;20070;-69
2022/10/12 04:34:48;;;;;;;8.15;2.75;;;;;;;11.81;46.81;97349.22;6320298;28;20036;-69
2022/10/12 04:37:49;;;;;;;;;;;;;;;12.15;46.30;97346.31;6319679;28;20036;-68
2022/10/12 04:40:53;;;;;;;7.23;2.87;;;;;;;12.21;46.31;97341.47;6320436;28;19920;-67
2022/10/12 04:43:56;;;;;;;;;;;;;;;12.48;46.41;97349.41;6320595;28;20035;-68
2022/10/12 04:46:59;;;;;;;8.88;2.97;;;;;;;12.46;45.63;97345.19;6319722;28;20008;-69
2022/10/12 04:50:02;;;;;;;4.28;3.15;;;;;;;12.52;45.08;97348.25;6320335;28;20405;-69
2022/10/12 04:53:09;;;;;;;5.68;1.95;;;;;;;12.66;44.63;97351.78;6320161;28;20043;-69
2022/10/12 04:56:16;;;;;;;4.15;2.58;;;;;;;12.81;44.32;97351.63;6320275;28;20460;-69
2022/10/12 04:59:18;;;;;;;8.73;2.40;;;;;;;13.04;43.29;97351.88;6323777;28;20052;-68
2022/10/12 05:02:22;;;;;;;5.93;2.55;;;;;;;13.32;42.14;97358.81;6325312;28;20070;-68
2022/10/12 05:05:28;;;;;;;7.25;1.55;;;;;;;13.48;41.30;97350.69;6325427;28;20044;-68
2022/10/12 05:08:30;;;;;;;3.55;1.75;;;;;;;13.77;40.65;97348.66;6325240;28;20122;-68
2022/10/12 05:11:32;;;;;;;4.22;2.08;;;;;;;14.10;39.95;97357.81;6325022;28;20036;-69
2022/10/12 05:14:34;;;;;;;3.30;1.60;;;;;;;14.39;39.00;97350.44;6324981;28;20040;-70
2022/10/12 05:17:37;;;;;;;1.80;1.27;;;;;;;14.62;38.31;97351.41;6324992;28;20127;-69
2022/10/12 05:20:41;;;;;;;3.50;1.70;;;;;;;14.98;37.54;97345.19;6324646;28;20040;-69
2022/10/12 05:23:43;;;;;;;4.20;1.75;;;;;;;15.47;36.25;97357.38;6325005;28;20036;-69
2022/10/12 05:26:50;;;;;;;3.05;1.20;;;;;;;15.61;35.46;97363.41;6324841;28;20051;-69
2022/10/12 05:29:56;;;;;;;5.07;2.00;;;;;;;15.90;34.64;97362.00;6324592;28;20490;-69
2022/10/12 05:33:02;;;;;;;6.55;1.85;;;;;;;16.63;33.42;97361.56;6324779;28;20401;-69
2022/10/12 05:36:04;;;;;;;7.95;2.13;;;;;;;17.79;32.13;97362.47;6324278;28;20105;-69
2022/10/12 05:39:06;;;;;;;6.65;1.85;;;;;;;18.61;30.52;97361.47;6323430;28;20046;-68
2022/10/12 05:42:09;;;;;;;;;;;;;;;19.42;30.95;97369.25;6324450;28;20142;-69
2022/10/12 05:45:14;;;;;;;6.97;2.67;;;;;;;19.71;29.74;97364.72;6324490;28;19927;-69
2022/10/12 05:48:18;;;;;;;7.40;3.17;;;;;;;20.80;27.23;97366.75;6324413;28;20044;-69
2022/10/12 05:51:21;;;;;;;10.48;5.53;;;;;;;22.07;25.97;97355.72;6323936;28;20490;-69
2022/10/12 05:54:25;;;;;;;8.85;3.30;;;;;;;23.13;24.22;97358.81;6322334;28;20150;-69
2022/10/12 05:57:29;;;;;;;3.85;2.13;;;;;;;23.81;23.18;97362.13;6323903;28;20501;-70
2022/10/12 06:00:31;;;;;;;5.47;2.30;;;;;;;24.74;22.49;97364.19;6323087;28;20043;-69
2022/10/12 06:03:35;;;;;;;6.35;3.08;;;;;;;25.72;21.13;97369.72;6323688;28;20043;-68
2022/10/12 06:06:40;;;;;;;8.60;3.05;;;;;;;27.42;19.48;97361.53;6323326;28;20050;-69
2022/10/12 06:09:44;;;;;;;5.03;2.70;;;;;;;28.90;18.16;97364.97;6322550;28;20039;-69
2022/10/12 06:12:45;;;;;;;8.73;3.13;;;;;;;29.34;17.76;97360.94;6321688;28;20044;-69
2022/10/12 06:15:48;;;;;;;6.82;2.40;;;;;;;28.68;17.87;97355.31;6323478;28;20537;-69
2022/10/12 06:18:56;;;;;;;3.10;2.03;;;;;;;27.73;18.22;97347.66;6322480;28;20039;-69
2022/10/12 06:21:57;;;;;;;4.38;2.00;;;;;;;29.99;17.24;97353.88;6323201;28;20040;-69
2022/10/12 06:24:59;;;;;;;7.97;2.40;;;;;;;33.48;14.53;97350.63;6323171;28;20490;-69
2022/10/12 06:28:00;;;;;;;4.45;2.03;;;;;;;36.33;12.28;97348.44;6323134;28;20094;-70
2022/10/12 06:31:04;;;;;;;4.67;1.67;;;;;;;37.17;12.11;97351.94;6322860;28;20052;-68
2022/10/12 06:34:06;;;;;;;6.85;2.25;;;;;;;36.73;12.04;97343.78;6321042;28;20467;-68
2022/10/12 06:37:09;;;;;;;5.68;2.45;;;;;;;38.06;10.43;97354.16;6323029;28;20139;-69
2022/10/12 06:40:13;;;;;;;3.75;2.38;;;;;;;38.22;10.42;97352.34;6323123;28;20044;-69
2022/10/12 06:43:17;;;;;;;2.85;1.70;;;;;;;38.52;10.09;97359.94;6322986;28;20047;-68
2022/10/12 06:46:21;;;;;;;5.28;3.63;;;;;;;39.34;9.41;97353.94;6322976;28;20135;-68
2022/10/12 06:49:28;;;;;;;5.60;2.60;;;;;;;38.28;9.79;97354.03;6322500;28;20067;-68
2022/10/12 06:52:30;;;;;;;5.85;2.85;;;;;;;36.39;11.17;97346.59;6323269;28;20040;-68
2022/10/12 06:55:41;;;;;;;4.65;2.67;;;;;;;34.02;12.04;97344.31;6322723;28;20533;-68
2022/10/12 06:58:42;;;;;;;5.53;3.17;;;;;;;31.55;13.49;97324.78;6322465;28;20044;-69
2022/10/12 07:01:47;;;;;;;5.40;2.22;;;;;;;30.23;14.68;97320.88;6322488;28;20509;-69
2022/10/12 07:04:49;;;;;;;7.40;2.00;;;;;;;30.19;14.55;97320.44;6322338;28;20394;-69
2022/10/12 07:07:54;;;;;;;4.30;1.83;;;;;;;33.33;12.25;97319.41;6322457;28;20043;-69
2022/10/12 07:11:01;;;;;;;4.78;1.30;;;;;;;35.69;10.15;97326.09;6322364;28;20040;-69
2022/10/12 07:14:03;;;;;;;3.15;0.90;;;;;;;36.30;9.96;97334.44;6322116;28;20036;-69
2022/10/12 07:17:04;;;;;;;4.53;1.15;;;;;;;37.13;9.53;97335.19;6322047;28;20079;-69
2022/10/12 07:20:08;;;;;;;3.45;1.30;;;;;;;36.37;9.59;97333.13;6322109;28;20044;-69
2022/10/12 07:23:09;;;;;;;2.90;1.45;;;;;;;35.86;10.37;97326.91;6320834;28;20635;-68
2022/10/12 07:26:16;;;;;;;4.22;1.50;;;;;;;35.82;10.51;97330.41;6321828;28;20048;-69
2022/10/12 07:29:20;;;;;;;3.78;1.33;;;;;;;35.52;10.48;97326.06;6321375;28;20159;-69
2022/10/12 07:32:22;;;;;;;3.90;1.40;;;;;;;34.55;10.93;97321.47;6320392;28;20040;-69
2022/10/12 07:35:23;;;;;;;3.80;1.63;;;;;;;33.71;11.53;97321.75;6321943;28;20501;-68
2022/10/12 07:38:25;;;;;;;3.87;2.77;;;;;;;32.92;12.03;97316.41;6321808;28;20050;-68
2022/10/12 07:41:29;;;;;;;4.00;1.90;;;;;;;31.94;12.56;97312.75;6321172;28;20509;-69
2022/10/12 07:44:31;;;;;;;3.90;1.50;;;;;;;30.49;13.25;97315.38;6321081;28;20070;-69
2022/10/12 07:47:33;;;;;;;2.17;1.13;;;;;;;28.62;14.91;97308.22;6320855;28;20050;-69
2022/10/12 07:50:37;;;;;;;1.40;0.80;;;;;;;28.08;15.29;97304.44;6321138;28;20055;-69
2022/10/12 07:53:39;;;;;;;3.35;1.00;;;;;;;27.89;15.55;97302.47;6320500;28;20036;-68
2022/10/12 07:56:43;;;;;;;1.52;0.80;;;;;;;26.90;16.30;97299.72;6318761;28;20040;-69
2022/10/12 07:59:47;;;;;;;2.97;1.25;;;;;;;25.74;17.26;97291.38;6320590;28;20509;-68
2022/10/12 08:02:48;;;;;;;2.65;1.58;;;;;;;25.67;17.62;97285.88;6318924;28;20517;-68
2022/10/12 08:05:49;;;;;;;5.90;1.55;;;;;;;27.31;16.09;97289.09;6320570;28;20552;-69
2022/10/12 08:08:51;;;;;;;3.47;1.88;;;;;;;28.74;15.07;97281.41;6320552;28;20051;-69
2022/10/12 08:11:56;;;;;;;1.70;0.80;;;;;;;29.86;14.09;97288.78;6320504;28;20524;-68
2022/10/12 08:15:00;;;;;;;1.15;0.68;;;;;;;31.01;13.37;97282.72;6320354;28;20095;-69
2022/10/12 08:18:04;;;;;;;3.53;1.08;;;;;;;29.74;13.84;97274.22;6320315;28;20560;-68
2022/10/12 08:21:12;;;;;;;2.22;0.82;;;;;;;27.69;15.23;97269.84;6320055;28;20047;-69
2022/10/12 08:24:14;;;;;;;2.03;0.80;;;;;;;26.10;16.70;97263.66;6319892;28;20122;-69
2022/10/12 08:27:15;;;;;;;4.35;3.35;;;;;;;24.25;17.88;97259.50;6319845;28;20048;-68
2022/10/12 08:30:17;;;;;;;5.38;2.60;;;;;;;22.90;19.26;97253.06;6320024;28;20043;-69
2022/10/12 08:33:27;;;;;;;3.03;1.20;;;;;;;22.57;19.52;97263.78;6319944;28;20044;-69
2022/10/12 08:36:28;;;;;;;1.90;1.08;;;;;;;21.85;20.32;97261.50;6320407;28;20036;-70
2022/10/12 08:39:32;;;;;;;1.13;0.40;;;;;;;21.27;20.91;97254.97;6320300;28;20047;-69
2022/10/12 08:43:00;;;;;;;1.30;0.50;;;;;;;20.75;21.75;97251.38;6320238;28;20060;-69
2022/10/12 08:46:04;;;;;;;2.65;0.75;;;;;;;20.07;22.35;97236.69;6293564;28;20460;-70
2022/10/12 08:49:15;;;;;;;1.53;0.80;;;;;;;20.09;22.46;97245.34;6294665;28;20048;-69
2022/10/12 08:52:26;;;;;;;2.85;0.70;;;;;;;20.32;22.20;97250.28;6294841;28;20079;-69
2022/10/12 08:55:41;;;;;;;1.17;0.60;;;;;;;20.98;21.57;97247.25;6294941;28;20391;-69
2022/10/12 08:58:49;;;;;;;1.85;0.63;;;;;;;22.15;20.86;97237.84;6294890;28;20524;-69
2022/10/12 09:02:19;;;;;;;2.70;0.73;;;;;;;23.64;19.58;97249.31;6294718;28;20449;-69
2022/10/12 09:05:34;;;;;;;1.40;0.70;;;;;;;25.21;18.02;97242.88;6293619;28;20582;-68
2022/10/12 09:09:13;;;;;;;1.08;0.65;;;;;;;25.82;17.48;97234.69;6295028;28;20048;-69
2022/10/12 09:12:31;;;;;;;2.22;0.73;;;;;;;26.58;16.74;97239.78;6295116;28;20054;-70
2022/10/12 09:15:42;;;;;;;7.38;4.70;;;;;;;27.85;15.66;97237.09;6294426;28;20048;-69
2022/10/12 09:18:51;;;;;;;4.32;2.97;;;;;;;30.12;13.63;97232.78;6294731;28;20048;-69
2022/10/12 09:21:53;;;;;;;4.47;1.70;;;;;;;31.54;12.69;97230.66;6294895;28;20040;-68
2022/10/12 09:24:57;;;;;;;2.95;1.23;;;;;;;32.46;12.14;97233.41;6294544;28;20425;-69
2022/10/12 09:28:26;;;;;;;3.13;0.90;;;;;;;32.93;11.55;97228.13;6294376;28;20040;-69
2022/10/12 09:31:51;;;;;;;0.47;0.40;;;;;;;33.70;10.78;97235.50;6294134;28;20049;-69
2022/10/12 09:34:56;;;;;;;0.68;0.35;;;;;;;33.38;10.42;97224.09;6293386;28;20040;-68
2022/10/12 09:38:01;;;;;;;1.88;0.22;;;;;;;33.47;10.53;97233.56;6294878;28;20032;-70
2022/10/12 09:41:03;;;;;;;0.20;0.10;;;;;;;32.76;10.54;97227.97;6294402;28;20561;-68
2022/10/12 09:44:19;;;;;;;1.80;0.30;;;;;;;31.89;10.80;97219.19;6294665;28;20494;-68
2022/10/12 09:47:32;;;;;;;0.30;0.20;;;;;;;31.47;11.02;97213.56;6299282;28;20044;-68
2022/10/12 09:50:57;;;;;;;1.13;0.50;;;;;;;30.87;12.05;97214.88;6299213;28;20040;-69
2022/10/12 09:54:03;;;;;;;1.67;0.40;;;;;;;30.98;11.76;97204.34;6298905;28;20040;-68
2022/10/12 09:57:06;;;;;;;0.63;0.35;;;;;;;31.91;11.25;97209.78;6298762;28;20044;-70
2022/10/12 10:00:33;;;;;;;1.23;0.47;;;;;;;32.59;10.79;97214.16;6298703;28;20044;-70
2022/10/12 10:03:37;;;;;;;0.30;0.20;;;;;;;32.00;11.28;97204.03;6298830;28;20044;-68
2022/10/12 10:06:42;;;;;;;0.60;0.20;;;;;;;29.62;12.49;97197.25;6298475;28;20047;-70
2022/10/12 10:10:01;;;;;;;1.20;0.60;;;;;;;26.51;14.19;97190.31;6298454;28;20052;-69
2022/10/12 10:13:05;;;;;;;1.02;0.47;;;;;;;24.69;15.50;97200.59;6298427;28;20036;-69
2022/10/12 10:16:10;;;;;;;1.15;0.40;;;;;;;23.12;16.81;97188.00;6298346;28;20040;-68
2022/10/12 10:19:23;;;;;;;1.65;1.00;;;;;;;22.60;17.44;97196.41;6298583;28;20037;-70
2022/10/12 10:22:28;;;;;;;1.98;0.60;;;;;;;22.41;17.66;97194.88;6298416;28;20048;-70
2022/10/12 10:25:33;;;;;;;0.90;0.65;;;;;;;22.35;17.81;97196.38;6297984;28;20048;-69
2022/10/12 10:28:40;;;;;;;1.95;0.50;;;;;;;22.17;17.88;97201.00;6298256;28;20049;-69
2022/10/12 10:31:46;;;;;;;4.78;2.85;;;;;;;21.87;18.34;97189.03;6298025;28;20135;-69
2022/10/12 10:35:21;;;;;;;0.90;0.47;;;;;;;21.83;18.43;97188.53;6298089;28;20044;-69
2022/10/12 10:38:26;;;;;;;0.50;0.43;;;;;;;21.69;18.50;97181.09;6297320;28;20067;-69
2022/10/12 10:41:48;;;;;;;1.52;0.43;;;;;;;21.26;18.97;97182.88;6297473;28;20056;-69
2022/10/12 10:44:56;;;;;;;0.70;0.40;;;;;;;20.87;19.51;97180.63;6297843;28;20125;-70
2022/10/12 10:48:08;;;;;;;0.88;0.52;;;;;;;21.14;19.20;97182.28;6297929;28;20041;-71
2022/10/12 10:51:09;;;;;;;0.63;0.50;;;;;;;20.61;19.54;97180.59;6297823;28;20046;-69
2022/10/12 10:54:18;;;;;;;1.35;0.45;;;;;;;20.17;20.10;97189.34;6297428;28;20040;-69
2022/10/12 10:57:23;;;;;;;1.48;0.47;;;;;;;19.91;20.28;97191.09;6297375;28;20037;-69
2022/10/12 11:00:32;;;;;;;1.17;0.80;;;;;;;19.85;20.37;97183.69;6297299;28;20506;-68
2022/10/12 11:03:50;;;;;;;0.88;0.35;;;;;;;19.84;20.03;97179.31;6279777;28;20135;-70
2022/10/12 11:07:15;;;;;;;1.65;0.47;;;;;;;19.41;20.66;97186.94;6297235;28;20765;-68
2022/10/12 11:10:22;;;;;;;0.47;0.30;;;;;;;19.26;20.36;97185.75;6296047;28;20102;-70
2022/10/12 11:13:37;;;;;;;0.90;0.20;;;;;;;19.08;20.63;97183.00;6297013;28;20057;-68
2022/10/12 11:16:57;;;;;;;0.68;0.30;;;;;;;19.10;20.76;97183.69;6296965;28;20048;-70
2022/10/12 11:20:21;;;;;;;1.30;0.30;;;;;;;18.94;21.21;97167.44;6297254;28;20048;-69
2022/10/12 11:23:56;;;;;;;0.57;0.20;;;;;;;18.80;21.33;97171.44;6295311;28;20426;-69
2022/10/12 11:27:12;;;;;;;1.30;0.30;;;;;;;18.82;21.35;97172.97;6296551;28;20481;-69
2022/10/12 11:30:23;;;;;;;0.70;0.50;;;;;;;19.13;21.00;97162.03;6296540;28;20072;-69
2022/10/12 11:33:40;;;;;;;1.08;0.70;;;;;;;18.86;21.52;97159.34;6296743;28;20052;-70
2022/10/12 11:36:44;;;;;;;2.85;1.10;;;;;;;18.43;21.74;97157.97;6296507;28;20051;-70
2022/10/12 11:39:53;;;;;;;1.40;0.70;;;;;;;18.25;22.07;97156.00;6295966;28;20041;-69
2022/10/12 11:42:59;;;;;;;0.40;0.20;;;;;;;17.97;22.38;97146.19;6296378;28;20071;-68
2022/10/12 11:46:07;;;;;;;0.50;0.40;;;;;;;17.90;22.55;97152.06;6296194;28;20056;-70
2022/10/12 11:49:20;;;;;;;0.30;0.17;;;;;;;17.55;23.00;97154.34;6296075;28;20133;-68
2022/10/12 11:52:37;;;;;;;0.40;0.40;;;;;;;17.46;23.19;97151.50;6296038;28;20044;-70
2022/10/12 11:55:54;;;;;;;1.20;0.45;;;;;;;17.25;23.60;97150.75;6296107;28;20048;-70
2022/10/12 11:59:18;;;;;;;1.23;0.70;;;;;;;16.92;23.96;97150.03;6295777;28;20052;-69
2022/10/12 12:02:31;;;;;;;1.98;0.80;;;;;;;16.61;24.53;97152.63;6295790;28;20121;-68
2022/10/12 12:05:32;;;;;;;0.93;0.60;;;;;;;16.34;24.82;97152.31;6295736;28;20060;-70
2022/10/12 12:08:39;;;;;;;3.28;0.77;;;;;;;16.16;25.03;97152.03;6295042;28;20047;-70
2022/10/12 12:11:46;;;;;;;1.02;0.70;;;;;;;16.20;25.10;97152.63;6295760;28;20044;-70
2022/10/12 12:14:54;;;;;;;1.55;0.60;;;;;;;16.06;25.34;97151.94;6294220;28;20143;-70
2022/10/12 12:18:27;;;;;;;2.78;1.10;;;;;;;15.94;25.42;97158.28;6295460;28;20052;-70
2022/10/12 12:22:10;;;;;;;0.82;0.40;;;;;;;15.84;25.59;97160.00;6295336;28;20036;-69
2022/10/12 12:25:18;;;;;;;1.50;0.60;;;;;;;15.69;25.83;97154.97;6294967;28;20048;-70
2022/10/12 12:28:23;;;;;;;1.08;0.40;;;;;;;15.70;25.92;97148.69;6295327;28;20524;-69
2022/10/12 12:31:27;;;;;;;2.20;0.70;;;;;;;15.54;26.19;97142.91;6295305;28;20421;-71
2022/10/12 12:34:29;;;;;;;2.55;0.60;;;;;;;15.38;26.31;97143.28;6295260;28;20421;-69
2022/10/12 12:37:34;;;;;;;1.15;0.60;;;;;;;15.35;26.72;97140.06;6295339;28;20044;-70
2022/10/12 12:40:35;;;;;;;3.45;1.20;;;;;;;15.36;26.78;97147.88;6293802;28;20053;-69
2022/10/12 12:43:51;;;;;;;2.50;0.65;;;;;;;15.25;26.90;97140.75;6294975;28;20043;-68
2022/10/12 12:46:55;;;;;;;2.88;1.67;;;;;;;15.15;27.20;97137.19;6294014;28;20470;-70
2022/10/12 12:50:18;;;;;;;5.18;2.72;;;;;;;15.07;27.45;97136.94;6294837;28;20146;-70
2022/10/12 12:53:25;;;;;;;7.70;2.70;;;;;;;15.03;27.67;97135.47;6295160;28;20238;-69
2022/10/12 12:56:55;;;;;;;4.40;2.25;;;;;;;14.97;27.88;97138.59;6295184;28;20048;-69
2022/10/12 13:00:03;;;;;;;4.15;1.85;;;;;;;14.82;28.17;97144.16;6295542;28;20457;-69
2022/10/12 13:03:12;;;;;;;3.72;1.92;;;;;;;14.75;28.52;97142.94;6296375;28;20041;-68
2022/10/12 13:06:31;;;;;;;3.53;1.50;;;;;;;14.82;28.63;97146.78;6294835;28;20519;-69
2022/10/12 13:10:09;;;;;;;22.27;12.13;;;;;;;14.61;28.80;97148.47;6294939;28;20040;-71
2022/10/12 13:13:32;;;;;;;6.38;2.40;;;;;;;14.55;29.13;97146.25;6294964;28;20477;-69
2022/10/12 13:17:14;;;;;;;6.97;3.25;;;;;;;14.51;29.39;97134.19;6294780;28;20049;-69
2022/10/12 13:20:22;;;;;;;;;;;;;;;14.40;29.33;97137.66;6295747;28;20053;-70
2022/10/12 13:23:26;;;;;;;7.53;3.65;;;;;;;14.36;29.72;97136.22;6296371;28;20447;-69
2022/10/12 13:26:28;;;;;;;;;;;;;;;14.26;29.34;97130.75;6299542;28;20059;-69
2022/10/12 13:29:45;;;;;;;7.45;3.75;;;;;;;14.27;30.05;97139.56;6299546;28;19920;-70
2022/10/12 13:32:47;;;;;;;;;;;;;;;14.24;29.71;97138.00;6299767;28;20048;-71
2022/10/12 13:36:04;;;;;;;8.63;2.90;;;;;;;14.27;30.30;97131.63;6299351;28;19920;-69
2022/10/12 13:39:16;;;;;;;6.80;2.88;;;;;;;14.21;30.57;97132.06;6299237;28;20098;-70
2022/10/12 13:42:27;;;;;;;7.32;2.97;;;;;;;14.19;30.69;97136.66;6298930;28;20192;-71
2022/10/12 13:45:31;;;;;;;6.15;2.67;;;;;;;14.14;30.78;97137.00;6297861;28;20414;-70
2022/10/12 13:48:35;;;;;;;8.63;3.38;;;;;;;14.13;31.31;97144.09;6299035;28;20044;-69
2022/10/12 13:51:39;;;;;;;8.98;2.55;;;;;;;14.10;31.23;97140.84;6298797;28;20037;-70
2022/10/12 13:54:47;;;;;;;5.70;2.70;;;;;;;14.13;31.27;97140.59;6297297;28;20036;-69
2022/10/12 13:57:53;;;;;;;5.75;2.13;;;;;;;14.12;31.26;97144.19;6298943;28;20174;-70
2022/10/12 14:00:54;;;;;;;7.65;2.13;;;;;;;14.07;31.38;97147.19;6298697;28;20048;-69
2022/10/12 14:04:04;;;;;;;3.17;1.75;;;;;;;14.06;31.29;97144.66;6298665;28;20040;-70
2022/10/12 14:07:20;;;;;;;12.70;6.63;;;;;;;14.06;31.59;97144.66;6298638;28;20044;-69
2022/10/12 14:10:32;;;;;;;7.47;3.05;;;;;;;14.01;31.60;97147.66;6298738;28;20041;-70
2022/10/12 14:13:35;;;;;;;5.78;2.78;;;;;;;14.01;31.81;97152.09;6298807;28;20129;-68
2022/10/12 14:16:37;;;;;;;5.80;2.25;;;;;;;13.99;31.75;97143.44;6298277;28;20078;-70
2022/10/12 14:19:44;;;;;;;4.25;2.05;;;;;;;13.99;31.91;97146.09;6297787;28;20053;-69
2022/10/12 14:22:48;;;;;;;3.90;1.75;;;;;;;13.91;31.98;97144.84;6298392;28;20052;-69
2022/10/12 14:25:53;;;;;;;8.13;1.80;;;;;;;13.90;32.22;97143.16;6297822;28;20536;-71
2022/10/12 14:28:58;;;;;;;4.15;2.20;;;;;;;13.87;32.24;97143.38;6297907;28;20049;-70
2022/10/12 14:32:11;;;;;;;5.68;2.08;;;;;;;13.87;32.69;97150.47;6297086;28;20201;-69
2022/10/12 14:35:20;;;;;;;4.68;1.92;;;;;;;13.79;32.70;97148.41;6298004;28;20051;-68
2022/10/12 14:38:44;;;;;;;3.85;2.45;;;;;;;13.79;33.47;97145.75;6297844;28;20039;-70
2022/10/12 14:41:52;;;;;;;5.65;2.63;;;;;;;13.74;33.37;97154.97;6297679;28;20052;-68
2022/10/12 14:44:54;;;;;;;9.30;3.00;;;;;;;13.70;33.44;97149.03;6297476;28;20079;-69
2022/10/12 14:48:00;;;;;;;10.73;3.97;;;;;;;13.65;33.64;97145.91;6297942;28;20052;-69
2022/10/12 14:51:01;;;;;;;12.25;5.03;;;;;;;13.61;33.65;97139.16;6297810;28;20421;-70